There are multiple Weather-warnings   Click here for more information


Meteo18 Weather Cam more information Meteo18 Weather Cam


warning for Thunderstorms more information blitzortung!


Rain radar more information rain snow radar


Visit our other weather sites:

Template documentation
and downloads

And another site



Weather Underground History page Text

Daily Summary for April 10, 2016 Units:  Metric    English   Both
« Previous Day
Next Day »
Daily Weekly Monthly Yearly Custom
  High: Low: Average:
Temperature: 19.4 °C 1.7 °C 10.4 °C
Dew Point: 10.3 °C 1.3 °C 6.1 °C
Humidity: 98 % 49 % 78 %
Wind Speed: 12.9 km/h 0.0 km/h 1.7 km/h
Wind Gust: 19.3 km/h - -
Wind:- - WSW
Pressure: 1009.4 hPa 1002.3 hPa -
Precipitation: 0.5 mm    
Historical Graphs
 
 
Tabular Data for April 10, 2016
Time Temperature Dew Point Pressure Wind Wind Speed Wind Gust Humidity Rainfall Rate (Hourly)
00:02 5.2 °C 4.3 °C 1009.0 hPa Calm     94 % 0.0 mm
00:07 5.1 °C 4.4 °C 1009.0 hPa Calm     95 % 0.0 mm
00:12 4.9 °C 4.2 °C 1009.0 hPa Calm     95 % 0.0 mm
00:17 4.7 °C 4.0 °C 1009.0 hPa Calm     95 % 0.0 mm
00:22 4.4 °C 3.7 °C 1009.4 hPa Calm     95 % 0.0 mm
00:32 4.4 °C 3.7 °C 1009.4 hPa Calm     95 % 0.0 mm
00:37 4.3 °C 3.6 °C 1009.4 hPa Calm     95 % 0.0 mm
00:42 4.3 °C 3.7 °C 1009.4 hPa Calm     96 % 0.3 mm
00:47 4.2 °C 3.5 °C 1009.4 hPa Calm     95 % 0.3 mm
00:52 4.2 °C 3.6 °C 1009.4 hPa Calm     96 % 0.3 mm
00:57 4.3 °C 3.9 °C 1009.4 hPa Calm     97 % 0.3 mm
01:02 4.3 °C 3.7 °C 1009.4 hPa Calm     96 % 0.3 mm
01:07 4.2 °C 3.6 °C 1009.4 hPa Calm     96 % 0.3 mm
01:12 4.0 °C 3.4 °C 1009.4 hPa Calm     96 % 0.3 mm
01:17 3.8 °C 3.1 °C 1009.4 hPa Calm     95 % 0.3 mm
01:27 3.3 °C 2.6 °C 1009.4 hPa Calm     95 % 0.3 mm
01:32 3.3 °C 2.7 °C 1009.4 hPa Calm     96 % 0.3 mm
01:37 3.4 °C 2.8 °C 1009.4 hPa Calm     96 % 0.0 mm
01:42 3.5 °C 2.9 °C 1009.4 hPa Calm     96 % 0.0 mm
01:47 3.7 °C 3.3 °C 1009.4 hPa Calm     97 % 0.0 mm
01:52 3.9 °C 3.5 °C 1009.4 hPa Calm     97 % 0.0 mm
01:57 4.2 °C 3.8 °C 1009.4 hPa Calm     97 % 0.0 mm
02:02 4.3 °C 3.9 °C 1009.4 hPa Calm     97 % 0.0 mm
02:07 4.2 °C 3.8 °C 1009.4 hPa Calm     97 % 0.0 mm
02:12 4.2 °C 3.8 °C 1009.4 hPa Calm     97 % 0.0 mm
02:17 4.2 °C 3.8 °C 1009.4 hPa Calm     97 % 0.0 mm
02:22 4.1 °C 3.5 °C 1009.4 hPa Calm     96 % 0.0 mm
02:27 4.1 °C 3.7 °C 1009.4 hPa Calm     97 % 0.0 mm
02:32 3.9 °C 3.3 °C 1009.4 hPa Calm     96 % 0.0 mm
02:37 3.8 °C 3.2 °C 1009.4 hPa Calm     96 % 0.0 mm
02:42 3.7 °C 3.1 °C 1009.4 hPa Calm     96 % 0.0 mm
02:47 3.7 °C 3.3 °C 1009.4 hPa Calm     97 % 0.0 mm
02:52 3.6 °C 3.2 °C 1009.4 hPa Calm     97 % 0.0 mm
02:57 3.6 °C 3.2 °C 1009.4 hPa Calm     97 % 0.0 mm
03:02 3.6 °C 3.2 °C 1009.0 hPa Calm     97 % 0.0 mm
03:07 3.6 °C 3.2 °C 1009.0 hPa Calm     97 % 0.0 mm
03:12 3.5 °C 3.1 °C 1009.0 hPa Calm     97 % 0.0 mm
03:17 3.4 °C 3.0 °C 1009.0 hPa Calm     97 % 0.0 mm
03:22 3.4 °C 3.0 °C 1009.0 hPa Calm     97 % 0.0 mm
03:32 3.2 °C 2.8 °C 1009.0 hPa Calm     97 % 0.0 mm
03:47 3.2 °C 2.8 °C 1008.7 hPa Calm     97 % 0.0 mm
03:52 3.2 °C 2.8 °C 1008.7 hPa Calm     97 % 0.0 mm
04:02 3.2 °C 2.8 °C 1009.0 hPa Calm     97 % 0.0 mm
04:07 3.1 °C 2.7 °C 1009.0 hPa Calm     97 % 0.0 mm
04:12 3.0 °C 2.6 °C 1008.7 hPa Calm     97 % 0.0 mm
04:17 2.9 °C 2.5 °C 1008.7 hPa Calm     97 % 0.0 mm
04:22 2.8 °C 2.4 °C 1008.7 hPa Calm     97 % 0.0 mm
04:27 2.7 °C 2.3 °C 1008.7 hPa Calm     97 % 0.0 mm
04:32 2.5 °C 2.1 °C 1008.7 hPa Calm     97 % 0.0 mm
04:42 2.2 °C 1.8 °C 1008.7 hPa Calm     97 % 0.0 mm
04:47 1.9 °C 1.5 °C 1008.7 hPa Calm     97 % 0.0 mm
04:52 1.8 °C 1.4 °C 1008.7 hPa Calm     97 % 0.0 mm
04:57 1.9 °C 1.5 °C 1008.7 hPa Calm     97 % 0.0 mm
05:02 1.9 °C 1.5 °C 1008.4 hPa Calm     97 % 0.0 mm
05:12 2.0 °C 1.6 °C 1008.4 hPa Calm     97 % 0.0 mm
05:17 2.1 °C 1.7 °C 1008.4 hPa Calm     97 % 0.0 mm
05:22 2.1 °C 1.7 °C 1008.4 hPa Calm     97 % 0.0 mm
05:27 2.1 °C 1.7 °C 1008.4 hPa Calm     97 % 0.0 mm
05:32 2.2 °C 1.8 °C 1008.4 hPa Calm     97 % 0.0 mm
05:37 2.2 °C 1.8 °C 1008.4 hPa Calm     97 % 0.0 mm
05:42 2.3 °C 1.9 °C 1008.4 hPa Calm   1.6 km/h 97 % 0.0 mm
05:52 2.3 °C 1.9 °C 1008.4 hPa Calm   1.6 km/h 97 % 0.0 mm
05:57 2.4 °C 2.0 °C 1008.4 hPa Calm   3.2 km/h 97 % 0.0 mm
06:02 2.4 °C 2.0 °C 1008.4 hPa Calm   3.2 km/h 97 % 0.0 mm
06:12 2.3 °C 1.9 °C 1008.0 hPa Calm   1.6 km/h 97 % 0.0 mm
06:17 2.4 °C 2.0 °C 1008.0 hPa Calm   1.6 km/h 97 % 0.0 mm
06:22 2.3 °C 1.9 °C 1008.0 hPa Calm   1.6 km/h 97 % 0.0 mm
06:27 2.3 °C 1.9 °C 1008.0 hPa Calm   1.6 km/h 97 % 0.0 mm
06:32 2.1 °C 1.7 °C 1008.0 hPa Calm   1.6 km/h 97 % 0.0 mm
06:37 2.0 °C 1.6 °C 1008.0 hPa Calm   1.6 km/h 97 % 0.0 mm
06:42 1.9 °C 1.5 °C 1008.0 hPa Calm   3.2 km/h 97 % 0.0 mm
06:47 1.9 °C 1.5 °C 1008.0 hPa Calm   3.2 km/h 97 % 0.0 mm
06:52 1.8 °C 1.4 °C 1008.0 hPa Calm   3.2 km/h 97 % 0.0 mm
06:57 1.8 °C 1.4 °C 1008.0 hPa Calm   6.4 km/h 97 % 0.0 mm
07:02 1.7 °C 1.3 °C 1008.0 hPa Calm   6.4 km/h 97 % 0.0 mm
07:12 1.8 °C 1.4 °C 1008.0 hPa Calm     97 % 0.0 mm
07:17 1.8 °C 1.4 °C 1008.0 hPa Calm   1.6 km/h 97 % 0.0 mm
07:22 1.8 °C 1.4 °C 1008.0 hPa Calm   1.6 km/h 97 % 0.0 mm
07:32 1.9 °C 1.5 °C 1008.0 hPa Calm   1.6 km/h 97 % 0.0 mm
07:37 2.0 °C 1.6 °C 1008.0 hPa Calm   1.6 km/h 97 % 0.0 mm
07:42 2.1 °C 1.8 °C 1008.0 hPa Calm   1.6 km/h 98 % 0.0 mm
07:47 2.2 °C 1.9 °C 1008.0 hPa Calm   1.6 km/h 98 % 0.0 mm
07:52 2.3 °C 2.0 °C 1008.0 hPa Calm   1.6 km/h 98 % 0.0 mm
07:57 2.4 °C 2.1 °C 1008.0 hPa Calm   1.6 km/h 98 % 0.0 mm
08:02 2.5 °C 2.2 °C 1008.0 hPa Calm   1.6 km/h 98 % 0.0 mm
08:12 2.8 °C 2.5 °C 1008.0 hPa Calm     98 % 0.0 mm
08:17 2.8 °C 2.5 °C 1008.0 hPa Calm     98 % 0.0 mm
08:22 2.9 °C 2.6 °C 1008.0 hPa Calm     98 % 0.0 mm
08:27 3.1 °C 2.8 °C 1008.0 hPa Calm     98 % 0.0 mm
08:32 3.2 °C 2.9 °C 1008.0 hPa Calm     98 % 0.0 mm
08:37 3.3 °C 3.0 °C 1008.0 hPa Calm     98 % 0.0 mm
08:42 3.5 °C 3.2 °C 1008.0 hPa Calm   1.6 km/h 98 % 0.0 mm
08:47 3.7 °C 3.4 °C 1008.0 hPa Calm   1.6 km/h 98 % 0.0 mm
08:52 3.8 °C 3.5 °C 1008.0 hPa Calm   1.6 km/h 98 % 0.0 mm
08:57 3.9 °C 3.6 °C 1007.7 hPa Calm   1.6 km/h 98 % 0.0 mm
09:12 4.8 °C 4.5 °C 1007.7 hPa Calm   1.6 km/h 98 % 0.0 mm
09:17 5.2 °C 4.9 °C 1007.7 hPa Calm   1.6 km/h 98 % 0.3 mm
09:22 5.3 °C 5.0 °C 1007.7 hPa Calm   1.6 km/h 98 % 0.3 mm
09:27 5.7 °C 5.4 °C 1007.7 hPa Calm   1.6 km/h 98 % 0.3 mm
09:32 6.4 °C 6.1 °C 1007.3 hPa Calm   1.6 km/h 98 % 0.3 mm
09:42 7.6 °C 7.3 °C 1007.3 hPa Calm   1.6 km/h 98 % 0.3 mm
09:47 7.9 °C 7.6 °C 1007.3 hPa Calm   1.6 km/h 98 % 0.3 mm
09:52 7.7 °C 7.4 °C 1007.3 hPa ESE 1.6 km/h 4.8 km/h 98 % 0.3 mm
09:57 8.1 °C 7.8 °C 1007.3 hPa Calm   4.8 km/h 98 % 0.3 mm
10:02 8.2 °C 7.9 °C 1007.3 hPa WSW 1.6 km/h 4.8 km/h 98 % 0.3 mm
10:07 8.7 °C 8.4 °C 1007.0 hPa Calm   4.8 km/h 98 % 0.3 mm
10:17 9.2 °C 8.3 °C 1007.0 hPa Calm   4.8 km/h 94 % 0.0 mm
10:22 9.6 °C 8.4 °C 1007.0 hPa WSW 3.2 km/h 6.4 km/h 92 % 0.0 mm
10:27 9.9 °C 8.0 °C 1007.0 hPa Calm   6.4 km/h 88 % 0.0 mm
10:32 10.3 °C 8.4 °C 1007.0 hPa Calm   6.4 km/h 88 % 0.0 mm
10:37 10.7 °C 8.3 °C 1007.0 hPa SW 1.6 km/h 6.4 km/h 85 % 0.0 mm
10:42 11.0 °C 8.4 °C 1007.0 hPa West 1.6 km/h 6.4 km/h 84 % 0.0 mm
10:47 11.3 °C 8.9 °C 1006.7 hPa Calm   4.8 km/h 85 % 0.0 mm
10:52 11.8 °C 9.2 °C 1006.7 hPa ESE 1.6 km/h 9.7 km/h 84 % 0.0 mm
10:57 12.3 °C 8.8 °C 1006.7 hPa ESE 1.6 km/h 9.7 km/h 79 % 0.0 mm
11:07 12.7 °C 8.6 °C 1006.7 hPa NNW 8.0 km/h 8.0 km/h 76 % 0.0 mm
11:12 12.9 °C 9.0 °C 1006.7 hPa NNW 6.4 km/h 8.0 km/h 77 % 0.0 mm
11:17 12.8 °C 8.5 °C 1006.3 hPa WNW 8.0 km/h 11.3 km/h 75 % 0.0 mm
11:22 12.9 °C 8.4 °C 1006.3 hPa NNW 9.7 km/h 11.3 km/h 74 % 0.0 mm
11:32 13.3 °C 8.8 °C 1006.3 hPa WSW 1.6 km/h 11.3 km/h 74 % 0.0 mm
11:37 13.4 °C 9.1 °C 1006.3 hPa NW 1.6 km/h 11.3 km/h 75 % 0.0 mm
11:42 13.4 °C 8.5 °C 1006.3 hPa NW 6.4 km/h 8.0 km/h 72 % 0.0 mm
11:47 13.4 °C 8.7 °C 1006.0 hPa NNW 1.6 km/h 12.9 km/h 73 % 0.0 mm
11:57 13.6 °C 8.4 °C 1006.0 hPa NNW 6.4 km/h 12.9 km/h 71 % 0.0 mm
12:02 13.8 °C 8.8 °C 1006.0 hPa East 8.0 km/h 11.3 km/h 72 % 0.0 mm
12:07 14.1 °C 8.3 °C 1006.0 hPa NNW 3.2 km/h 11.3 km/h 68 % 0.0 mm
12:12 14.1 °C 8.7 °C 1006.0 hPa NW 6.4 km/h 11.3 km/h 70 % 0.0 mm
12:17 14.4 °C 8.8 °C 1005.6 hPa NNW 1.6 km/h 11.3 km/h 69 % 0.0 mm
12:27 14.8 °C 9.6 °C 1005.3 hPa NNW 3.2 km/h 11.3 km/h 71 % 0.0 mm
12:32 15.2 °C 8.9 °C 1005.3 hPa WNW 4.8 km/h 11.3 km/h 66 % 0.0 mm
12:37 15.0 °C 8.7 °C 1005.0 hPa NW 8.0 km/h 12.9 km/h 66 % 0.0 mm
12:47 15.4 °C 9.3 °C 1005.0 hPa South 3.2 km/h 12.9 km/h 67 % 0.0 mm
12:52 15.6 °C 9.0 °C 1005.0 hPa NW 6.4 km/h 11.3 km/h 65 % 0.0 mm
12:57 15.7 °C 9.1 °C 1005.0 hPa NNE 8.0 km/h 16.1 km/h 65 % 0.0 mm
13:02 15.9 °C 9.6 °C 1005.0 hPa SSW 3.2 km/h 16.1 km/h 66 % 0.0 mm
13:07 16.1 °C 9.5 °C 1005.0 hPa West 1.6 km/h 16.1 km/h 65 % 0.0 mm
13:12 16.2 °C 10.3 °C 1005.0 hPa NNW 4.8 km/h 12.9 km/h 68 % 0.0 mm
13:17 16.4 °C 9.1 °C 1004.6 hPa NW 12.9 km/h 12.9 km/h 62 % 0.0 mm
13:22 16.5 °C 9.2 °C 1004.6 hPa WNW 1.6 km/h 12.9 km/h 62 % 0.0 mm
13:27 16.5 °C 9.2 °C 1004.6 hPa NW 6.4 km/h 12.9 km/h 62 % 0.0 mm
13:32 16.6 °C 9.8 °C 1004.6 hPa WNW 6.4 km/h 12.9 km/h 64 % 0.0 mm
13:42 16.8 °C 9.0 °C 1004.6 hPa Calm   12.9 km/h 60 % 0.0 mm
13:47 17.1 °C 9.5 °C 1004.6 hPa North 12.9 km/h 12.9 km/h 61 % 0.0 mm
13:52 16.9 °C 8.8 °C 1004.3 hPa NW 6.4 km/h 12.9 km/h 59 % 0.0 mm
13:57 17.0 °C 9.4 °C 1004.3 hPa SSE 3.2 km/h 16.1 km/h 61 % 0.0 mm
14:02 17.2 °C 9.1 °C 1004.3 hPa NW 1.6 km/h 16.1 km/h 59 % 0.0 mm
14:07 17.2 °C 9.4 °C 1004.3 hPa SE 3.2 km/h 16.1 km/h 60 % 0.0 mm
14:12 17.3 °C 9.2 °C 1004.3 hPa North 6.4 km/h 12.9 km/h 59 % 0.0 mm
14:17 17.4 °C 10.0 °C 1004.3 hPa NNW 4.8 km/h 14.5 km/h 62 % 0.0 mm
14:22 17.6 °C 9.5 °C 1004.3 hPa NW 1.6 km/h 14.5 km/h 59 % 0.0 mm
14:27 17.5 °C 9.4 °C 1004.3 hPa NNW 11.3 km/h 11.3 km/h 59 % 0.0 mm
14:37 18.2 °C 10.3 °C 1004.3 hPa West 3.2 km/h 16.1 km/h 60 % 0.0 mm
14:42 18.1 °C 8.9 °C 1004.3 hPa WSW 4.8 km/h 16.1 km/h 55 % 0.0 mm
14:47 17.9 °C 9.3 °C 1003.9 hPa NW 6.4 km/h 11.3 km/h 57 % 0.0 mm
14:57 18.1 °C 9.2 °C 1003.9 hPa West 1.6 km/h 12.9 km/h 56 % 0.0 mm
15:02 18.2 °C 9.8 °C 1003.9 hPa NW 3.2 km/h 17.7 km/h 58 % 0.0 mm
15:07 18.3 °C 9.1 °C 1003.9 hPa West 3.2 km/h 17.7 km/h 55 % 0.0 mm
15:12 18.4 °C 8.9 °C 1003.9 hPa West 4.8 km/h 17.7 km/h 54 % 0.0 mm
15:17 18.2 °C 8.5 °C 1003.9 hPa North 11.3 km/h 14.5 km/h 53 % 0.0 mm
15:22 18.2 °C 9.5 °C 1003.9 hPa NNW 6.4 km/h 14.5 km/h 57 % 0.0 mm
15:37 18.6 °C 9.4 °C 1003.6 hPa NW 9.7 km/h 12.9 km/h 55 % 0.0 mm
15:42 18.5 °C 9.0 °C 1003.6 hPa Calm   19.3 km/h 54 % 0.0 mm
15:47 18.7 °C 8.9 °C 1003.6 hPa SSW 3.2 km/h 19.3 km/h 53 % 0.0 mm
15:52 18.9 °C 9.4 °C 1003.6 hPa NNW 6.4 km/h 19.3 km/h 54 % 0.0 mm
15:57 18.8 °C 9.0 °C 1003.6 hPa WNW 3.2 km/h 12.9 km/h 53 % 0.0 mm
16:02 19.1 °C 9.6 °C 1003.6 hPa WNW 1.6 km/h 12.9 km/h 54 % 0.0 mm
16:12 18.9 °C 8.8 °C 1003.3 hPa WNW 3.2 km/h 11.3 km/h 52 % 0.0 mm
16:17 18.9 °C 9.4 °C 1003.3 hPa NNW 6.4 km/h 16.1 km/h 54 % 0.0 mm
16:22 18.8 °C 8.7 °C 1002.9 hPa NNW 8.0 km/h 17.7 km/h 52 % 0.0 mm
16:27 18.9 °C 8.8 °C 1002.9 hPa NW 4.8 km/h 17.7 km/h 52 % 0.0 mm
16:37 19.0 °C 9.2 °C 1002.9 hPa WNW 3.2 km/h 16.1 km/h 53 % 0.0 mm
16:47 19.4 °C 9.0 °C 1002.9 hPa North 4.8 km/h 11.3 km/h 51 % 0.0 mm
16:52 19.2 °C 8.5 °C 1002.9 hPa North 6.4 km/h 11.3 km/h 50 % 0.0 mm
16:57 19.2 °C 8.8 °C 1002.9 hPa South 9.7 km/h 11.3 km/h 51 % 0.0 mm
17:02 19.0 °C 8.6 °C 1002.9 hPa North 3.2 km/h 14.5 km/h 51 % 0.0 mm
17:07 19.1 °C 9.0 °C 1002.9 hPa North 4.8 km/h 14.5 km/h 52 % 0.0 mm
17:12 19.4 °C 9.3 °C 1002.9 hPa North 3.2 km/h 14.5 km/h 52 % 0.0 mm
17:17 19.3 °C 8.6 °C 1002.9 hPa NW 4.8 km/h 14.5 km/h 50 % 0.0 mm
17:22 19.1 °C 9.0 °C 1002.9 hPa North 9.7 km/h 14.5 km/h 52 % 0.0 mm
17:27 19.0 °C 8.6 °C 1002.6 hPa NW 4.8 km/h 14.5 km/h 51 % 0.0 mm
17:32 19.1 °C 8.7 °C 1002.6 hPa WNW 3.2 km/h 14.5 km/h 51 % 0.0 mm
17:37 19.1 °C 8.7 °C 1002.6 hPa NNW 4.8 km/h 14.5 km/h 51 % 0.0 mm
17:42 19.1 °C 9.0 °C 1002.6 hPa Calm   14.5 km/h 52 % 0.0 mm
17:47 19.3 °C 9.2 °C 1002.3 hPa NW 4.8 km/h 14.5 km/h 52 % 0.0 mm
17:52 19.2 °C 8.2 °C 1002.3 hPa SSE 3.2 km/h 14.5 km/h 49 % 0.0 mm
17:57 19.2 °C 8.8 °C 1002.3 hPa North 9.7 km/h 11.3 km/h 51 % 0.0 mm
18:02 18.7 °C 8.4 °C 1002.3 hPa NW 8.0 km/h 14.5 km/h 51 % 0.0 mm
18:07 18.2 °C 8.2 °C 1002.3 hPa NW 1.6 km/h 14.5 km/h 52 % 0.0 mm
18:12 18.0 °C 8.3 °C 1002.3 hPa NE 3.2 km/h 14.5 km/h 53 % 0.0 mm
18:17 17.8 °C 8.1 °C 1002.3 hPa WNW 1.6 km/h 12.9 km/h 53 % 0.0 mm
18:27 17.6 °C 8.2 °C 1002.3 hPa Calm   9.7 km/h 54 % 0.0 mm
18:42 17.3 °C 8.2 °C 1002.3 hPa Calm   8.0 km/h 55 % 0.0 mm
18:47 17.3 °C 8.4 °C 1002.3 hPa SSE 3.2 km/h 8.0 km/h 56 % 0.0 mm
18:52 17.2 °C 8.6 °C 1002.3 hPa ESE 1.6 km/h 6.4 km/h 57 % 0.0 mm
18:57 17.2 °C 8.6 °C 1002.3 hPa Calm   9.7 km/h 57 % 0.0 mm
19:02 17.1 °C 8.5 °C 1002.3 hPa SE 1.6 km/h 9.7 km/h 57 % 0.0 mm
19:07 16.9 °C 8.3 °C 1002.3 hPa SE 1.6 km/h 9.7 km/h 57 % 0.0 mm
19:12 16.9 °C 8.3 °C 1002.3 hPa SW 1.6 km/h 8.0 km/h 57 % 0.0 mm
19:17 16.9 °C 8.3 °C 1002.3 hPa Calm   8.0 km/h 57 % 0.0 mm
19:22 16.9 °C 8.3 °C 1002.3 hPa SE 1.6 km/h 8.0 km/h 57 % 0.0 mm
19:27 16.8 °C 8.2 °C 1002.3 hPa South 1.6 km/h 8.0 km/h 57 % 0.0 mm
19:32 16.8 °C 8.5 °C 1002.3 hPa North 1.6 km/h 11.3 km/h 58 % 0.0 mm
19:37 16.7 °C 8.1 °C 1002.3 hPa ESE 6.4 km/h 11.3 km/h 57 % 0.0 mm
19:42 16.7 °C 8.1 °C 1002.3 hPa SW 1.6 km/h 8.0 km/h 57 % 0.0 mm
19:47 16.7 °C 7.9 °C 1002.3 hPa West 3.2 km/h 11.3 km/h 56 % 0.0 mm
19:52 16.6 °C 7.8 °C 1002.3 hPa East 8.0 km/h 11.3 km/h 56 % 0.0 mm
19:57 16.6 °C 8.0 °C 1002.3 hPa Calm   11.3 km/h 57 % 0.0 mm
20:02 16.4 °C 7.6 °C 1002.3 hPa SW 1.6 km/h 8.0 km/h 56 % 0.0 mm
20:07 16.4 °C 7.6 °C 1002.3 hPa East 3.2 km/h 8.0 km/h 56 % 0.0 mm
20:12 16.3 °C 7.8 °C 1002.3 hPa Calm   6.4 km/h 57 % 0.0 mm
20:22 15.8 °C 7.3 °C 1002.3 hPa Calm   6.4 km/h 57 % 0.0 mm
20:27 15.6 °C 8.1 °C 1002.3 hPa ESE 1.6 km/h 4.8 km/h 61 % 0.0 mm
20:32 15.4 °C 7.7 °C 1002.3 hPa Calm   8.0 km/h 60 % 0.0 mm
20:37 15.0 °C 7.5 °C 1002.3 hPa Calm   8.0 km/h 61 % 0.0 mm
20:42 14.7 °C 7.7 °C 1002.3 hPa Calm   8.0 km/h 63 % 0.0 mm
20:47 14.2 °C 7.9 °C 1002.3 hPa Calm   4.8 km/h 66 % 0.0 mm
20:52 13.7 °C 7.9 °C 1002.3 hPa Calm   4.8 km/h 68 % 0.0 mm
20:57 13.2 °C 7.8 °C 1002.3 hPa Calm   3.2 km/h 70 % 0.0 mm
21:02 12.7 °C 7.8 °C 1002.3 hPa Calm   1.6 km/h 72 % 0.0 mm
21:07 12.3 °C 7.8 °C 1002.3 hPa Calm     74 % 0.0 mm
21:12 12.0 °C 7.5 °C 1002.3 hPa Calm     74 % 0.0 mm
21:22 11.7 °C 7.4 °C 1002.3 hPa ENE 3.2 km/h   75 % 0.0 mm
21:32 11.8 °C 7.1 °C 1002.3 hPa Calm   4.8 km/h 73 % 0.0 mm
21:37 12.4 °C 7.1 °C 1002.3 hPa Calm   6.4 km/h 70 % 0.0 mm
21:42 12.9 °C 7.1 °C 1002.3 hPa Calm   6.4 km/h 68 % 0.0 mm
21:47 13.2 °C 7.0 °C 1002.3 hPa Calm   6.4 km/h 66 % 0.0 mm
21:52 13.3 °C 6.9 °C 1002.3 hPa Calm   6.4 km/h 65 % 0.0 mm
21:57 13.3 °C 7.1 °C 1002.3 hPa Calm   4.8 km/h 66 % 0.0 mm
22:02 13.0 °C 7.0 °C 1002.3 hPa Calm   3.2 km/h 67 % 0.0 mm
22:07 12.7 °C 7.2 °C 1002.3 hPa Calm   3.2 km/h 69 % 0.0 mm
22:12 12.3 °C 7.0 °C 1002.3 hPa Calm   4.8 km/h 70 % 0.0 mm
22:17 11.9 °C 6.8 °C 1002.3 hPa Calm   4.8 km/h 71 % 0.0 mm
22:22 11.5 °C 6.8 °C 1002.3 hPa Calm   4.8 km/h 73 % 0.0 mm
22:32 10.9 °C 6.6 °C 1002.3 hPa Calm   3.2 km/h 75 % 0.0 mm
22:37 11.2 °C 6.5 °C 1002.3 hPa Calm   3.2 km/h 73 % 0.0 mm
22:42 11.7 °C 6.4 °C 1002.3 hPa Calm   3.2 km/h 70 % 0.0 mm
22:47 11.9 °C 6.4 °C 1002.3 hPa Calm   3.2 km/h 69 % 0.0 mm
22:52 12.3 °C 6.8 °C 1002.3 hPa Calm   4.8 km/h 69 % 0.0 mm
22:57 12.3 °C 6.6 °C 1002.3 hPa Calm   4.8 km/h 68 % 0.0 mm
23:02 12.4 °C 6.4 °C 1002.3 hPa Calm   4.8 km/h 67 % 0.0 mm
23:07 12.4 °C 6.7 °C 1002.3 hPa Calm   4.8 km/h 68 % 0.0 mm
23:12 12.6 °C 6.6 °C 1002.3 hPa Calm   8.0 km/h 67 % 0.0 mm
23:17 12.3 °C 6.6 °C 1002.3 hPa Calm   8.0 km/h 68 % 0.0 mm
23:27 12.0 °C 6.7 °C 1002.3 hPa Calm   1.6 km/h 70 % 0.0 mm
23:32 11.8 °C 6.5 °C 1002.3 hPa Calm   1.6 km/h 70 % 0.0 mm
23:37 11.5 °C 6.4 °C 1002.3 hPa Calm   1.6 km/h 71 % 0.0 mm
23:42 11.1 °C 6.2 °C 1002.3 hPa Calm   1.6 km/h 72 % 0.0 mm
23:47 10.9 °C 6.3 °C 1002.3 hPa Calm   1.6 km/h 73 % 0.0 mm
Meteo18
Compliments of Weather Underground - 4 mb

Script developed by  Jim McMurry - jmcmurry@mwt.net Adapted for the template by  Wim van der Kuil - Leuven-Template.eu

You find our weather info also at:

European Weather Network

Weather Underground

Equipment we use:

Weather-station
Davis Vue

Weather-program
Meteohub

Weather-server
Raspberry PI 2 B+

Provider
1 and 1

Davis Vue

Meteohub

Raspberry PI 2 B+

1 and 1